Time,TemperatureF,DewpointF,PressureIn,WindDirection,WindDirectionDegrees,WindSpeedMPH,WindSpeedGustMPH,Humidity,HourlyPrecipIn,Conditions,Clouds,dailyrainin,SoftwareType,DateUTC
2016-10-01 00:10:00,60.1,58.1,30.07,NNE,14,0.0,0.0,93,0.00,,,0.00,Wunderground v.1.15,2016-10-01 06:10:00,
2016-10-01 00:20:00,60.1,58.1,30.07,NNE,14,0.0,0.0,93,0.00,,,0.00,Wunderground v.1.15,2016-10-01 06:20:00,
2016-10-01 00:31:00,59.9,57.9,30.07,NNE,14,0.0,0.0,93,0.00,,,0.00,Wunderground v.1.15,2016-10-01 06:31:00,
2016-10-01 00:40:00,59.8,57.8,30.07,NNE,14,0.0,0.0,93,0.00,,,0.00,Wunderground v.1.15,2016-10-01 06:40:00,
2016-10-01 00:50:00,59.8,58.1,30.07,NNE,14,0.0,0.0,94,0.00,,,0.00,Wunderground v.1.15,2016-10-01 06:50:00,
2016-10-01 01:00:00,59.6,57.9,30.07,NNE,14,0.0,0.0,94,0.00,,,0.00,Wunderground v.1.15,2016-10-01 07:00:00,
2016-10-01 01:10:00,59.6,57.9,30.07,NNE,14,0.0,0.0,94,0.00,,,0.00,Wunderground v.1.15,2016-10-01 07:10:00,
2016-10-01 01:20:00,59.5,57.8,30.07,NNE,14,0.0,0.0,94,0.00,,,0.00,Wunderground v.1.15,2016-10-01 07:20:00,
2016-10-01 01:30:00,59.3,57.6,30.07,NNE,14,0.0,0.0,94,0.00,,,0.00,Wunderground v.1.15,2016-10-01 07:30:00,
2016-10-01 01:40:00,59.3,57.6,30.07,NNE,14,0.0,0.0,94,0.00,,,0.00,Wunderground v.1.15,2016-10-01 07:40:00,
2016-10-01 01:50:00,59.2,57.5,30.06,NNE,14,0.0,0.0,94,0.00,,,0.00,Wunderground v.1.15,2016-10-01 07:50:00,
2016-10-01 02:10:00,58.9,57.2,30.06,NNE,14,0.0,0.0,94,0.00,,,0.00,Wunderground v.1.15,2016-10-01 08:10:00,
2016-10-01 02:20:00,58.9,57.5,30.06,NNE,14,0.0,0.0,95,0.00,,,0.00,Wunderground v.1.15,2016-10-01 08:20:00,
2016-10-01 02:31:00,58.7,57.3,30.05,NNE,14,0.0,0.0,95,0.00,,,0.00,Wunderground v.1.15,2016-10-01 08:31:00,
2016-10-01 02:40:00,58.7,57.3,30.05,NNE,14,0.0,0.0,95,0.00,,,0.00,Wunderground v.1.15,2016-10-01 08:40:00,
2016-10-01 02:50:00,58.6,57.2,30.05,NNE,14,0.0,0.0,95,0.00,,,0.00,Wunderground v.1.15,2016-10-01 08:50:00,
2016-10-01 03:00:00,58.6,57.2,30.05,NNE,14,0.0,0.0,95,0.00,,,0.00,Wunderground v.1.15,2016-10-01 09:00:00,
2016-10-01 03:10:00,58.4,57.0,30.05,NNE,14,0.0,0.0,95,0.00,,,0.00,Wunderground v.1.15,2016-10-01 09:10:00,
2016-10-01 03:20:00,58.3,56.9,30.05,NNE,14,0.0,0.0,95,0.00,,,0.00,Wunderground v.1.15,2016-10-01 09:20:00,
2016-10-01 03:31:00,58.3,56.9,30.05,NNE,14,0.0,0.0,95,0.00,,,0.00,Wunderground v.1.15,2016-10-01 09:31:00,
2016-10-01 03:50:00,58.1,56.7,30.05,NNE,14,0.0,0.0,95,0.00,,,0.00,Wunderground v.1.15,2016-10-01 09:50:00,
2016-10-01 04:01:00,58.1,57.0,30.05,NNE,14,0.0,0.0,96,0.00,,,0.00,Wunderground v.1.15,2016-10-01 10:01:00,
2016-10-01 04:10:00,58.1,57.0,30.05,NNE,14,0.0,0.0,96,0.00,,,0.00,Wunderground v.1.15,2016-10-01 10:10:00,
2016-10-01 04:20:00,58.1,57.0,30.05,NNE,14,0.0,0.0,96,0.00,,,0.00,Wunderground v.1.15,2016-10-01 10:20:00,
2016-10-01 04:30:00,58.1,57.0,30.05,NNE,14,0.0,0.0,96,0.00,,,0.00,Wunderground v.1.15,2016-10-01 10:30:00,
2016-10-01 04:40:00,58.0,56.9,30.05,NNE,14,0.0,0.0,96,0.00,,,0.00,Wunderground v.1.15,2016-10-01 10:40:00,
2016-10-01 04:50:00,57.8,56.7,30.05,NNE,14,0.0,0.0,96,0.00,,,0.00,Wunderground v.1.15,2016-10-01 10:50:00,
2016-10-01 05:10:00,57.6,56.5,30.05,NNE,14,0.0,0.0,96,0.00,,,0.00,Wunderground v.1.15,2016-10-01 11:10:00,
2016-10-01 05:20:00,57.5,56.4,30.06,NNE,14,0.0,0.0,96,0.00,,,0.00,Wunderground v.1.15,2016-10-01 11:20:00,
2016-10-01 05:31:00,57.3,56.2,30.06,NNE,14,0.0,0.0,96,0.00,,,0.00,Wunderground v.1.15,2016-10-01 11:31:00,
2016-10-01 05:40:00,57.2,56.1,30.06,NNE,14,0.0,0.0,96,0.00,,,0.00,Wunderground v.1.15,2016-10-01 11:40:00,
2016-10-01 05:50:00,57.2,56.1,30.07,NNE,14,0.0,0.0,96,0.00,,,0.00,Wunderground v.1.15,2016-10-01 11:50:00,
2016-10-01 06:01:00,57.3,56.2,30.07,NNE,14,0.0,0.0,96,0.00,,,0.00,Wunderground v.1.15,2016-10-01 12:01:00,
2016-10-01 06:10:00,57.3,56.2,30.07,NNE,14,0.0,0.0,96,0.00,,,0.00,Wunderground v.1.15,2016-10-01 12:10:00,
2016-10-01 06:20:00,57.3,56.2,30.08,NNE,14,0.0,0.0,96,0.00,,,0.00,Wunderground v.1.15,2016-10-01 12:20:00,
2016-10-01 06:30:00,57.6,56.5,30.08,NNE,14,0.0,0.0,96,0.00,,,0.00,Wunderground v.1.15,2016-10-01 12:30:00,
2016-10-01 06:40:00,58.3,57.5,30.08,NNE,14,0.0,0.0,97,0.00,,,0.00,Wunderground v.1.15,2016-10-01 12:40:00,
2016-10-01 06:50:00,58.7,57.9,30.09,NNE,14,0.0,0.0,97,0.00,,,0.00,Wunderground v.1.15,2016-10-01 12:50:00,
2016-10-01 07:10:00,61.3,60.7,30.09,NNE,14,0.0,0.0,98,0.00,,,0.00,Wunderground v.1.15,2016-10-01 13:10:00,
2016-10-01 07:20:00,63.9,63.3,30.09,NNE,14,0.0,0.0,98,0.00,,,0.00,Wunderground v.1.15,2016-10-01 13:20:00,
2016-10-01 07:40:00,68.3,67.4,30.10,NNE,14,0.0,0.0,97,0.00,,,0.00,Wunderground v.1.15,2016-10-01 13:40:00,
2016-10-01 07:50:00,69.9,68.7,30.10,NNE,14,0.0,0.0,96,0.00,,,0.00,Wunderground v.1.15,2016-10-01 13:50:00,
2016-10-01 08:01:00,71.5,68.4,30.10,NNE,14,0.0,0.0,90,0.00,,,0.00,Wunderground v.1.15,2016-10-01 14:01:00,
2016-10-01 08:10:00,72.0,64.8,30.10,NNE,14,1.0,1.0,78,0.00,,,0.00,Wunderground v.1.15,2016-10-01 14:10:00,
2016-10-01 08:20:00,73.5,62.7,30.10,North,0,0.0,1.0,69,0.00,,,0.00,Wunderground v.1.15,2016-10-01 14:20:00,
2016-10-01 08:40:00,76.3,60.4,30.10,North,0,1.0,2.0,58,0.00,,,0.00,Wunderground v.1.15,2016-10-01 14:40:00,
2016-10-01 09:10:00,77.6,57.5,30.10,North,0,2.0,2.0,50,0.00,,,0.00,Wunderground v.1.15,2016-10-01 15:10:00,
2016-10-01 09:20:00,79.0,59.3,30.10,North,0,0.0,0.0,51,0.00,,,0.00,Wunderground v.1.15,2016-10-01 15:20:00,
2016-10-01 09:31:00,78.6,57.8,30.10,North,353,3.0,3.0,49,0.00,,,0.00,Wunderground v.1.15,2016-10-01 15:31:00,
2016-10-01 09:40:00,78.1,57.9,30.10,North,359,1.0,1.0,50,0.00,,,0.00,Wunderground v.1.15,2016-10-01 15:40:00,
2016-10-01 09:50:00,78.5,58.3,30.10,SSE,168,1.0,1.0,50,0.00,,,0.00,Wunderground v.1.15,2016-10-01 15:50:00,
2016-10-01 10:01:00,79.0,55.8,30.10,North,357,2.0,2.0,45,0.00,,,0.00,Wunderground v.1.15,2016-10-01 16:01:00,
2016-10-01 10:10:00,79.2,56.6,30.10,West,281,1.0,1.0,46,0.00,,,0.00,Wunderground v.1.15,2016-10-01 16:10:00,
2016-10-01 10:20:00,79.2,56.6,30.09,North,3,2.0,2.0,46,0.00,,,0.00,Wunderground v.1.15,2016-10-01 16:20:00,
2016-10-01 10:31:00,80.1,57.5,30.09,NE,52,1.0,1.0,46,0.00,,,0.00,Wunderground v.1.15,2016-10-01 16:31:00,
2016-10-01 10:40:00,80.3,57.6,30.09,NNE,14,2.0,2.0,46,0.00,,,0.00,Wunderground v.1.15,2016-10-01 16:40:00,
2016-10-01 10:50:00,79.8,58.4,30.08,North,359,1.0,1.0,48,0.00,,,0.00,Wunderground v.1.15,2016-10-01 16:50:00,
2016-10-01 11:00:00,80.1,56.8,30.08,North,359,1.0,1.0,45,0.00,,,0.00,Wunderground v.1.15,2016-10-01 17:00:00,
2016-10-01 11:10:00,80.3,58.8,30.08,North,0,1.0,4.0,48,0.00,,,0.00,Wunderground v.1.15,2016-10-01 17:10:00,
2016-10-01 11:20:00,79.8,55.9,30.07,North,352,3.0,3.0,44,0.00,,,0.00,Wunderground v.1.15,2016-10-01 17:20:00,
2016-10-01 11:40:00,80.9,56.3,30.07,SE,124,2.0,2.0,43,0.00,,,0.00,Wunderground v.1.15,2016-10-01 17:40:00,
2016-10-01 11:50:00,81.4,57.4,30.06,SE,128,2.0,2.0,44,0.00,,,0.00,Wunderground v.1.15,2016-10-01 17:50:00,
2016-10-01 12:10:00,81.1,57.1,30.05,East,79,2.0,2.0,44,0.00,,,0.00,Wunderground v.1.15,2016-10-01 18:10:00,
2016-10-01 12:20:00,82.0,58.6,30.05,WSW,240,1.0,8.0,45,0.00,,,0.00,Wunderground v.1.15,2016-10-01 18:20:00,
2016-10-01 12:30:00,82.4,57.7,30.05,WSW,251,2.0,2.0,43,0.00,,,0.00,Wunderground v.1.15,2016-10-01 18:30:00,
2016-10-01 12:40:00,81.8,57.1,30.05,North,0,2.0,2.0,43,0.00,,,0.00,Wunderground v.1.15,2016-10-01 18:40:00,
2016-10-01 12:50:00,80.7,56.1,30.04,North,0,1.0,1.0,43,0.00,,,0.00,Wunderground v.1.15,2016-10-01 18:50:00,
2016-10-01 13:10:00,81.4,56.1,30.03,ENE,72,1.0,4.0,42,0.00,,,0.00,Wunderground v.1.15,2016-10-01 19:10:00,
2016-10-01 13:20:00,80.7,56.8,30.02,North,0,2.0,2.0,44,0.00,,,0.00,Wunderground v.1.15,2016-10-01 19:20:00,
2016-10-01 13:31:00,81.4,56.1,30.02,North,0,1.0,1.0,42,0.00,,,0.00,Wunderground v.1.15,2016-10-01 19:31:00,
2016-10-01 13:40:00,81.6,55.6,30.02,North,0,3.0,3.0,41,0.00,,,0.00,Wunderground v.1.15,2016-10-01 19:40:00,
2016-10-01 13:50:00,82.0,57.3,30.02,North,11,1.0,1.0,43,0.00,,,0.00,Wunderground v.1.15,2016-10-01 19:50:00,
2016-10-01 14:01:00,81.4,55.4,30.02,NNW,328,4.0,4.0,41,0.00,,,0.00,Wunderground v.1.15,2016-10-01 20:01:00,
2016-10-01 14:10:00,82.0,56.6,30.02,NNW,347,0.0,0.0,42,0.00,,,0.00,Wunderground v.1.15,2016-10-01 20:10:00,
2016-10-01 14:20:00,81.6,56.3,30.01,SE,136,1.0,2.0,42,0.00,,,0.00,Wunderground v.1.15,2016-10-01 20:20:00,
2016-10-01 14:40:00,82.0,57.3,30.01,North,0,2.0,2.0,43,0.00,,,0.00,Wunderground v.1.15,2016-10-01 20:40:00,
2016-10-01 14:50:00,81.4,58.0,30.01,North,0,1.0,4.0,45,0.00,,,0.00,Wunderground v.1.15,2016-10-01 20:50:00,
2016-10-01 15:10:00,81.4,58.0,30.01,WSW,250,1.0,2.0,45,0.00,,,0.00,Wunderground v.1.15,2016-10-01 21:10:00,
2016-10-01 15:45:00,81.1,59.6,30.01,NW,304,1.0,2.0,48,0.00,,,0.00,Wunderground v.1.15,2016-10-01 21:45:00,
2016-10-01 16:10:00,79.9,63.8,30.00,WNW,302,1.0,1.0,58,0.00,,,0.00,Wunderground v.1.15,2016-10-01 22:10:00,
2016-10-01 16:26:00,79.9,62.3,30.00,WNW,302,1.0,1.0,55,0.00,,,0.00,Wunderground v.1.15,2016-10-01 22:26:00,
2016-10-01 16:40:00,79.8,61.7,30.01,WSW,240,1.0,1.0,54,0.00,,,0.00,Wunderground v.1.15,2016-10-01 22:40:00,
2016-10-01 16:51:00,78.6,63.6,30.01,WSW,240,1.0,1.0,60,0.00,,,0.00,Wunderground v.1.15,2016-10-01 22:51:00,
2016-10-01 17:10:00,76.0,62.9,30.01,WSW,240,0.0,1.0,64,0.00,,,0.00,Wunderground v.1.15,2016-10-01 23:10:00,
2016-10-01 17:20:00,75.3,62.3,30.01,WSW,240,1.0,1.0,64,0.00,,,0.00,Wunderground v.1.15,2016-10-01 23:20:00,